Time;durP1;ratioP1;P1;durP2;ratioP2;P2;SDS_P1;SDS_P2;PMS_P1;PMS_P2;Temp;Humidity;BMP_temperature;BMP_pressure;BME280_temperature;BME280_humidity;BME280_pressure;Samples;Min_cycle;Max_cycle;Signal;HPM_P1;HPM_P2
2022/08/24 00:04:38;;;;;;;6.23;5.60;;;;;;;23.93;54.27;94811.28;6265846;22;103786;-57
2022/08/24 00:30:38;;;;;;;5.83;5.27;;;;;;;24.43;52.99;94834.59;6285582;22;102907;-54
2022/08/24 00:33:41;;;;;;;5.67;5.23;;;;;;;24.51;52.74;94839.09;6233095;27;103860;-54
2022/08/24 00:36:45;;;;;;;5.67;5.17;;;;;;;24.57;52.46;94839.69;6255144;27;103558;-53
2022/08/24 00:39:48;;;;;;;6.37;5.87;;;;;;;24.63;52.44;94838.38;6256482;27;105526;-53
2022/08/24 00:42:55;;;;;;;6.00;5.50;;;;;;;24.57;52.50;94845.03;6231187;28;105480;-53
2022/08/24 00:46:16;;;;;;;5.83;5.33;;;;;;;24.54;52.67;94859.06;6220510;28;103334;-53
2022/08/24 00:49:35;;;;;;;6.53;5.93;;;;;;;24.43;52.79;94851.44;6230799;28;103159;-58
2022/08/24 00:52:41;;;;;;;6.30;5.73;;;;;;;24.45;52.75;94862.56;6231600;28;102958;-53
2022/08/24 00:55:48;;;;;;;6.47;5.87;;;;;;;24.50;52.44;94859.69;6225938;28;104368;-53
2022/08/24 00:58:59;;;;;;;6.33;5.73;;;;;;;24.43;52.77;94864.03;6225580;28;104996;-55
2022/08/24 01:02:08;;;;;;;6.53;5.67;;;;;;;24.29;53.33;94864.25;6229606;28;103032;-53
2022/08/24 01:05:18;;;;;;;7.30;6.53;;;;;;;24.08;53.90;94869.56;6230443;28;103369;-54
2022/08/24 01:08:22;;;;;;;6.97;6.40;;;;;;;23.95;54.48;94875.09;6219739;28;102994;-55
2022/08/24 01:11:32;;;;;;;7.90;7.30;;;;;;;23.59;55.40;94881.69;6230739;28;107763;-54
2022/08/24 01:14:41;;;;;;;6.97;6.33;;;;;;;23.60;54.98;94885.91;6230784;28;105287;-55
2022/08/24 01:21:19;;;;;;;7.17;6.60;;;;;;;23.35;55.61;94889.41;6192215;28;106938;-54
2022/08/24 01:24:24;;;;;;;7.37;6.57;;;;;;;23.23;55.43;94888.16;6205983;28;106876;-54
2022/08/24 01:27:29;;;;;;;7.23;6.47;;;;;;;23.26;55.57;94884.88;6205353;28;103225;-54
2022/08/24 01:30:35;;;;;;;7.77;6.50;;;;;;;23.42;54.97;94892.41;6156337;28;272178;-55
2022/08/24 01:33:39;;;;;;;8.53;6.63;;;;;;;23.54;54.92;94898.66;6181043;28;103521;-55
2022/08/24 01:36:53;;;;;;;6.67;6.07;;;;;;;23.52;55.05;94889.38;6189253;28;103488;-54
2022/08/24 01:40:00;;;;;;;8.10;5.80;;;;;;;23.65;54.59;94891.06;6187732;28;105586;-54
2022/08/24 01:43:08;;;;;;;6.27;5.77;;;;;;;23.76;54.54;94900.31;6178399;28;103380;-55
2022/08/24 03:24:46;;;;;;;15.93;14.43;;;;;;;23.36;56.96;94936.41;6127433;28;102903;-58
2022/08/24 03:27:52;;;;;;;11.90;10.70;;;;;;;23.69;56.31;94924.09;6156210;28;103310;-58
2022/08/24 03:30:55;;;;;;;10.73;9.73;;;;;;;23.91;54.95;94923.06;6184333;28;104367;-58
2022/08/24 03:33:58;;;;;;;13.30;12.10;;;;;;;23.99;55.39;94921.47;6182683;28;104389;-58
2022/08/24 03:37:02;;;;;;;12.70;11.40;;;;;;;24.06;55.32;94929.81;6180294;28;104298;-58
2022/08/24 03:40:09;;;;;;;12.53;11.10;;;;;;;23.84;55.52;94934.25;6183476;28;103434;-58
2022/08/24 03:46:47;;;;;;;11.53;10.33;;;;;;;24.08;55.01;94943.63;6178986;28;104078;-56
2022/08/24 03:49:50;;;;;;;11.77;10.70;;;;;;;23.93;55.18;94939.56;6170273;28;104524;-56
2022/08/24 03:52:53;;;;;;;12.23;10.47;;;;;;;23.93;55.12;94938.78;6172808;28;103365;-57
2022/08/24 03:55:58;;;;;;;11.10;10.00;;;;;;;24.00;54.91;94939.88;6179622;28;103296;-57
2022/08/24 03:59:09;;;;;;;13.43;10.77;;;;;;;24.10;54.50;94942.22;6186417;28;104119;-62
2022/08/24 04:02:12;;;;;;;11.13;10.00;;;;;;;24.10;54.33;94949.44;6175372;28;103844;-56
2022/08/24 04:05:16;;;;;;;12.20;11.00;;;;;;;24.02;54.67;94943.00;6180214;28;104097;-57
2022/08/24 04:08:20;;;;;;;12.83;11.60;;;;;;;24.03;54.70;94939.25;6181180;28;103996;-54
2022/08/24 04:11:28;;;;;;;12.63;11.30;;;;;;;24.24;54.55;94939.31;6178245;28;103061;-55
2022/08/24 04:14:31;;;;;;;12.50;11.00;;;;;;;24.39;54.01;94935.31;6178485;28;104039;-55
2022/08/24 04:17:35;;;;;;;11.77;10.77;;;;;;;24.42;54.03;94943.47;6182321;28;103306;-55
2022/08/24 04:20:39;;;;;;;14.23;10.80;;;;;;;24.40;54.49;94936.88;6178919;28;105054;-57
2022/08/24 04:23:43;;;;;;;13.00;11.90;;;;;;;24.27;54.35;94932.53;6174789;28;103179;-57
2022/08/24 04:26:51;;;;;;;13.27;11.97;;;;;;;24.27;54.31;94944.03;6185255;28;104068;-57
2022/08/24 04:29:54;;;;;;;12.97;11.67;;;;;;;24.34;53.88;94946.97;6187777;28;103624;-57
2022/08/24 04:32:58;;;;;;;12.43;10.90;;;;;;;24.38;53.73;94947.13;6186131;28;104266;-57
2022/08/24 04:36:01;;;;;;;11.73;10.70;;;;;;;24.37;54.13;94949.03;6177223;28;103223;-57
2022/08/24 04:39:04;;;;;;;12.13;11.23;;;;;;;24.38;54.12;94947.91;6186431;28;103078;-57
2022/08/24 04:42:10;;;;;;;12.30;11.30;;;;;;;24.40;53.74;94948.38;6184509;28;103080;-57
2022/08/24 04:45:14;;;;;;;11.27;10.23;;;;;;;24.42;53.84;94951.50;6184756;28;104044;-57
2022/08/24 04:48:18;;;;;;;10.80;9.83;;;;;;;24.42;53.68;94954.19;6175704;28;103223;-57
2022/08/24 04:51:21;;;;;;;11.67;10.60;;;;;;;24.46;53.62;94951.63;6184978;28;102945;-57
2022/08/24 04:54:25;;;;;;;10.37;9.40;;;;;;;24.44;54.06;94953.84;6184299;28;103501;-57
2022/08/24 04:57:29;;;;;;;10.57;9.57;;;;;;;24.43;53.75;94950.41;6178339;28;104307;-57
2022/08/24 05:00:33;;;;;;;9.70;8.90;;;;;;;24.44;53.89;94943.94;6186409;28;103000;-57
2022/08/24 05:03:36;;;;;;;9.73;8.93;;;;;;;24.44;54.01;94957.31;6186801;28;103949;-57
2022/08/24 05:06:40;;;;;;;9.17;8.37;;;;;;;24.46;53.91;94947.06;6191160;28;104398;-57
2022/08/24 05:09:44;;;;;;;10.37;8.73;;;;;;;24.46;54.12;94941.72;6180942;28;104099;-57
2022/08/24 05:12:49;;;;;;;10.03;9.13;;;;;;;24.47;54.21;94945.97;6191317;28;103956;-58
2022/08/24 05:15:52;;;;;;;10.73;9.93;;;;;;;24.46;54.15;94947.06;6190907;28;103401;-57
2022/08/24 05:18:56;;;;;;;9.73;8.57;;;;;;;24.48;53.97;94944.84;6191113;28;104562;-58
2022/08/24 05:21:59;;;;;;;10.10;8.20;;;;;;;24.50;53.96;94945.31;6180722;28;103709;-57
2022/08/24 05:25:02;;;;;;;11.63;9.83;;;;;;;24.54;54.26;94947.38;6188143;28;103004;-58
2022/08/24 05:28:07;;;;;;;14.23;12.00;;;;;;;24.55;54.22;94955.06;6189413;28;103514;-57
2022/08/24 05:31:14;;;;;;;9.83;8.83;;;;;;;24.54;54.79;94955.38;6182948;28;103453;-58
2022/08/24 05:34:18;;;;;;;11.90;9.50;;;;;;;24.55;54.61;94938.22;6183506;28;102976;-57
2022/08/24 05:37:21;;;;;;;9.80;8.87;;;;;;;24.57;54.44;94930.66;6189214;28;104094;-57
2022/08/24 05:40:24;;;;;;;8.87;8.07;;;;;;;24.57;54.57;94933.34;6188139;28;103109;-57
2022/08/24 05:43:36;;;;;;;11.00;8.27;;;;;;;24.59;54.57;94939.13;6178851;28;103999;-58
2022/08/24 05:46:39;;;;;;;8.70;7.80;;;;;;;24.61;54.64;94928.91;6188094;28;106390;-57
2022/08/24 05:49:43;;;;;;;8.73;7.50;;;;;;;24.66;54.50;94936.72;6188474;28;102697;-57
2022/08/24 05:52:46;;;;;;;8.60;7.70;;;;;;;24.69;54.47;94942.25;6188180;28;104150;-56
2022/08/24 05:55:49;;;;;;;8.50;7.70;;;;;;;24.74;54.22;94939.38;6177783;28;104321;-57
2022/08/24 05:58:54;;;;;;;7.60;6.90;;;;;;;24.74;53.99;94942.06;6189326;28;103238;-57
2022/08/24 06:01:57;;;;;;;8.47;7.60;;;;;;;24.80;54.34;94939.97;6187675;28;103003;-56
2022/08/24 06:05:01;;;;;;;7.73;7.13;;;;;;;24.87;54.18;94939.47;6184166;28;104009;-59
2022/08/24 06:08:04;;;;;;;7.63;6.83;;;;;;;24.86;53.55;94937.88;6182181;28;104406;-57
2022/08/24 06:11:08;;;;;;;9.07;7.10;;;;;;;24.86;53.72;94940.56;6188024;28;103452;-57
2022/08/24 06:14:14;;;;;;;6.77;6.07;;;;;;;24.84;53.64;94940.88;6187257;28;103381;-56
2022/08/24 06:17:17;;;;;;;7.43;6.73;;;;;;;24.87;54.00;94947.50;6176815;28;104807;-57
2022/08/24 06:20:21;;;;;;;7.00;6.40;;;;;;;24.84;53.09;94935.53;6187554;28;104008;-57
2022/08/24 06:23:24;;;;;;;7.93;6.80;;;;;;;24.84;53.20;94935.53;6187313;28;104235;-57
2022/08/24 06:29:56;;;;;;;6.67;6.07;;;;;;;24.81;52.47;94932.72;6177637;28;103971;-56
2022/08/24 06:32:59;;;;;;;7.63;7.03;;;;;;;24.83;52.82;94933.97;6188454;28;103282;-56
2022/08/24 06:36:03;;;;;;;7.13;6.43;;;;;;;24.85;52.60;94925.59;6188702;28;103048;-56
2022/08/24 06:39:09;;;;;;;5.97;5.57;;;;;;;24.88;52.37;94925.75;6183760;28;102836;-65
2022/08/24 06:42:12;;;;;;;7.20;6.50;;;;;;;24.91;52.83;94941.16;6182875;28;104268;-57
2022/08/24 06:45:20;;;;;;;6.93;6.33;;;;;;;24.94;52.52;94945.88;6188450;28;104389;-57
2022/08/24 06:48:23;;;;;;;5.87;5.43;;;;;;;24.96;52.15;94948.22;6189532;28;104015;-57
2022/08/24 06:51:26;;;;;;;7.17;6.47;;;;;;;24.96;52.07;94949.00;6178810;28;104241;-57
2022/08/24 06:54:30;;;;;;;6.67;6.07;;;;;;;24.98;52.04;94949.44;6188156;28;102835;-57
2022/08/24 06:57:33;;;;;;;7.10;6.50;;;;;;;24.99;51.95;94950.22;6188720;28;103240;-57
2022/08/24 07:00:38;;;;;;;7.43;6.73;;;;;;;25.04;51.90;94950.84;6187990;28;103278;-57
2022/08/24 07:03:41;;;;;;;7.47;6.77;;;;;;;25.05;51.73;94952.41;6177306;28;103067;-57
2022/08/24 07:06:45;;;;;;;7.17;6.50;;;;;;;25.08;51.44;94953.63;6188743;28;104010;-57
2022/08/24 07:09:48;;;;;;;8.03;7.23;;;;;;;25.12;51.71;94953.75;6188505;28;103324;-57
2022/08/24 07:12:51;;;;;;;6.93;6.33;;;;;;;25.12;51.54;94967.16;6188177;28;103221;-57
2022/08/24 07:15:56;;;;;;;7.30;6.60;;;;;;;25.08;51.25;94967.03;6179426;28;105346;-57
2022/08/24 07:19:00;;;;;;;7.30;6.70;;;;;;;25.08;51.25;94975.84;6187996;28;103024;-57
2022/08/24 07:22:03;;;;;;;6.97;6.27;;;;;;;25.09;50.91;94977.41;6188150;28;104089;-57
2022/08/24 07:25:08;;;;;;;6.67;5.97;;;;;;;25.12;50.92;94973.28;6177760;28;103435;-57
2022/08/24 07:28:11;;;;;;;8.07;7.37;;;;;;;25.15;50.95;94977.22;6186975;28;103717;-56
2022/08/24 07:31:17;;;;;;;7.23;6.53;;;;;;;25.16;51.27;94966.16;6187440;28;104192;-57
2022/08/24 07:34:21;;;;;;;7.37;6.77;;;;;;;25.16;51.04;94973.41;6188267;28;103004;-57
2022/08/24 07:37:24;;;;;;;8.37;7.40;;;;;;;25.20;50.82;94958.25;6176586;28;104170;-58
2022/08/24 07:40:35;;;;;;;7.50;6.77;;;;;;;25.24;50.87;94959.19;6187829;28;102798;-58
2022/08/24 07:43:58;;;;;;;8.13;7.33;;;;;;;25.28;50.69;94962.78;6187880;28;105773;-57
2022/08/24 07:47:03;;;;;;;6.60;6.10;;;;;;;25.28;50.88;94958.19;6184630;28;103144;-57
2022/08/24 07:50:26;;;;;;;8.07;6.43;;;;;;;25.21;50.45;94957.94;6183640;28;104644;-59
2022/08/24 07:53:29;;;;;;;6.93;6.20;;;;;;;25.24;50.67;94959.97;6187240;28;104160;-57
2022/08/24 07:56:53;;;;;;;6.03;5.53;;;;;;;25.31;50.45;94954.06;6187519;28;102832;-58
2022/08/24 07:59:56;;;;;;;7.20;6.50;;;;;;;25.33;50.00;94947.28;6175604;28;104288;-57
2022/08/24 08:03:03;;;;;;;8.00;6.93;;;;;;;25.35;50.32;94939.72;6187554;28;104187;-59
2022/08/24 08:06:09;;;;;;;6.67;6.10;;;;;;;25.36;50.05;94935.13;6187307;28;102998;-58
2022/08/24 08:09:19;;;;;;;6.80;6.30;;;;;;;25.41;50.37;94936.84;6187415;28;103513;-58
2022/08/24 08:12:22;;;;;;;7.20;6.50;;;;;;;25.46;49.93;94937.44;6176717;28;104137;-58
2022/08/24 08:15:25;;;;;;;7.17;6.33;;;;;;;25.42;50.03;94923.13;6186711;28;103985;-57
2022/08/24 08:18:31;;;;;;;7.00;6.50;;;;;;;25.39;49.94;94937.19;6186901;28;103981;-57
2022/08/24 08:24:54;;;;;;;6.40;5.77;;;;;;;25.49;49.76;94936.75;6186417;28;104198;-58
2022/08/24 08:27:58;;;;;;;6.50;6.00;;;;;;;25.58;49.31;94937.47;6186789;28;103097;-58
2022/08/24 08:31:14;;;;;;;6.73;6.03;;;;;;;25.67;49.62;94929.34;6186158;28;103029;-59
2022/08/24 08:34:19;;;;;;;6.87;6.27;;;;;;;25.74;50.01;94926.91;6175810;28;104803;-58
2022/08/24 08:37:23;;;;;;;6.10;5.60;;;;;;;25.80;49.63;94930.94;6186292;28;104612;-58
2022/08/24 08:40:42;;;;;;;6.33;5.80;;;;;;;25.88;49.71;94940.00;6188582;28;103285;-59
2022/08/24 08:43:51;;;;;;;6.83;6.27;;;;;;;25.85;50.23;94940.66;6185924;28;103462;-58
2022/08/24 08:47:06;;;;;;;6.33;5.80;;;;;;;25.93;49.67;94937.88;6186343;28;104045;-59
2022/08/24 08:50:16;;;;;;;6.50;6.10;;;;;;;26.01;49.35;94928.19;6191199;28;104646;-58
2022/08/24 08:53:51;;;;;;;6.13;5.73;;;;;;;26.10;49.82;94934.25;6190872;28;103331;-54
2022/08/24 08:57:10;;;;;;;7.70;5.60;;;;;;;26.14;49.21;94937.81;6180937;28;103256;-57
2022/08/24 09:00:18;;;;;;;6.87;6.30;;;;;;;26.18;49.51;94944.09;6190493;28;104078;-57
2022/08/24 09:03:41;;;;;;;6.30;5.70;;;;;;;26.25;49.02;94949.69;6190586;28;104111;-59
2022/08/24 09:07:13;;;;;;;6.43;5.70;;;;;;;26.27;49.24;94942.09;6182491;28;103158;-56
2022/08/24 09:10:43;;;;;;;8.43;5.70;;;;;;;26.32;49.42;94942.97;6177239;28;103342;-57
2022/08/24 09:14:05;;;;;;;6.30;5.80;;;;;;;26.38;49.17;94953.16;6187822;28;104425;-56
2022/08/24 09:17:23;;;;;;;5.77;5.23;;;;;;;26.41;48.53;94949.03;6190742;28;103366;-57
2022/08/24 09:20:46;;;;;;;6.57;6.07;;;;;;;26.44;48.63;94951.03;6180522;28;104369;-58
2022/08/24 09:24:00;;;;;;;6.17;5.67;;;;;;;26.43;48.72;94938.75;6189980;28;103211;-58
2022/08/24 09:27:15;;;;;;;5.83;5.33;;;;;;;26.46;48.77;94932.69;6190506;28;103004;-58
2022/08/24 09:30:23;;;;;;;5.60;5.20;;;;;;;26.45;48.82;94931.13;6179764;28;103411;-57
2022/08/24 09:33:35;;;;;;;5.60;5.20;;;;;;;26.47;48.97;94928.91;6190221;28;104156;-58
2022/08/24 09:36:52;;;;;;;6.00;5.60;;;;;;;26.47;48.34;94927.00;6190158;28;104359;-58
2022/08/24 09:40:04;;;;;;;6.10;5.50;;;;;;;26.47;48.41;94918.16;6190237;28;104155;-58
2022/08/24 09:43:55;;;;;;;6.17;5.67;;;;;;;26.47;48.54;94913.56;6178221;28;103005;-58
2022/08/24 09:47:36;;;;;;;6.20;4.93;;;;;;;26.50;48.80;94920.16;6190195;28;104328;-58
2022/08/24 09:51:00;;;;;;;5.83;5.33;;;;;;;26.49;48.00;94905.19;6186813;28;103286;-58
2022/08/24 09:54:38;;;;;;;6.20;5.70;;;;;;;26.49;48.23;94897.91;6179160;28;103135;-59
2022/08/24 09:57:57;;;;;;;5.60;5.20;;;;;;;26.46;48.66;94889.75;6184535;28;103277;-58
2022/08/24 10:01:10;;;;;;;5.90;5.47;;;;;;;26.45;48.08;94883.59;6189880;28;104177;-59
2022/08/24 10:04:24;;;;;;;6.10;5.60;;;;;;;26.46;48.36;94887.84;6178786;28;102927;-58
2022/08/24 10:07:36;;;;;;;5.07;4.57;;;;;;;26.47;48.48;94875.22;6189217;28;103340;-59
2022/08/24 10:10:51;;;;;;;6.10;5.70;;;;;;;26.45;48.60;94878.25;6189444;28;103010;-57
2022/08/24 10:14:07;;;;;;;6.13;5.60;;;;;;;26.43;48.63;94875.13;6189406;28;103733;-58
2022/08/24 10:17:18;;;;;;;6.10;5.57;;;;;;;26.47;47.91;94875.22;6178428;28;103234;-58
2022/08/24 10:20:24;;;;;;;5.37;4.97;;;;;;;26.45;48.26;94872.09;6188244;28;103590;-58
2022/08/24 10:23:45;;;;;;;5.40;5.00;;;;;;;26.46;48.13;94873.66;6189158;28;104142;-58
2022/08/24 10:27:06;;;;;;;6.13;5.63;;;;;;;26.45;47.90;94872.09;6177608;28;105867;-58
2022/08/24 10:30:39;;;;;;;6.07;5.67;;;;;;;26.40;48.75;94870.44;6189489;28;103603;-56
2022/08/24 10:33:59;;;;;;;6.20;5.70;;;;;;;26.34;48.84;94868.28;6189268;28;103215;-67
2022/08/24 10:37:23;;;;;;;5.87;5.37;;;;;;;26.34;47.98;94871.75;6185725;28;104492;-58
2022/08/24 10:40:37;;;;;;;7.00;5.40;;;;;;;26.33;47.93;94869.41;6184172;28;104342;-59
2022/08/24 10:44:00;;;;;;;5.83;5.43;;;;;;;26.32;48.02;94863.28;6188484;28;104143;-57
2022/08/24 10:47:13;;;;;;;5.73;5.10;;;;;;;26.33;47.83;94864.06;6189441;28;104324;-61
2022/08/24 10:50:31;;;;;;;6.07;5.57;;;;;;;26.33;47.52;94864.84;6178840;28;103242;-59
2022/08/24 10:53:35;;;;;;;5.90;5.50;;;;;;;26.30;47.76;94854.00;6189029;28;104379;-59
2022/08/24 10:56:41;;;;;;;6.07;5.57;;;;;;;26.30;48.53;94860.16;6187986;28;103766;-59
2022/08/24 10:59:52;;;;;;;5.70;5.30;;;;;;;26.28;48.22;94857.81;6185305;28;102985;-58
2022/08/24 11:03:09;;;;;;;6.57;5.97;;;;;;;26.28;48.47;94863.16;6176749;28;104096;-59
2022/08/24 11:06:15;;;;;;;5.70;5.30;;;;;;;26.28;48.67;94859.69;6188244;28;104667;-59
2022/08/24 11:09:18;;;;;;;5.33;4.93;;;;;;;26.27;48.37;94850.09;6188077;28;103512;-58
2022/08/24 11:12:27;;;;;;;6.57;6.07;;;;;;;26.25;47.98;94858.47;6177468;28;104107;-58
2022/08/24 11:15:30;;;;;;;5.83;5.43;;;;;;;26.26;47.90;94854.69;6187601;28;103101;-59
2022/08/24 11:18:53;;;;;;;6.20;5.70;;;;;;;26.26;48.08;94849.31;6187483;28;103186;-59
2022/08/24 11:21:57;;;;;;;6.83;6.33;;;;;;;26.26;48.49;94851.22;6187710;28;103750;-61
2022/08/24 11:25:07;;;;;;;6.60;6.00;;;;;;;26.24;48.29;94853.47;6176866;28;102963;-59
2022/08/24 11:28:30;;;;;;;6.07;5.67;;;;;;;26.21;48.13;94846.06;6186947;28;103134;-58
2022/08/24 11:31:39;;;;;;;6.43;5.93;;;;;;;26.21;48.34;94846.88;6188113;28;104187;-58
2022/08/24 11:34:46;;;;;;;7.63;6.93;;;;;;;26.20;49.00;94847.97;6182413;28;103965;-62
2022/08/24 11:37:51;;;;;;;6.37;5.87;;;;;;;26.20;48.48;94836.44;6184276;28;103005;-63
2022/08/24 11:41:03;;;;;;;6.83;6.33;;;;;;;26.19;48.79;94832.19;6186107;28;102975;-59
2022/08/24 11:44:21;;;;;;;7.10;6.43;;;;;;;26.20;49.04;94831.88;6187853;28;104158;-58
2022/08/24 11:47:45;;;;;;;6.60;5.93;;;;;;;26.19;49.18;94830.31;6176415;28;104159;-58
2022/08/24 11:50:56;;;;;;;6.60;6.00;;;;;;;26.18;48.73;94831.41;6186911;28;103026;-58
2022/08/24 11:54:06;;;;;;;6.97;6.47;;;;;;;26.19;49.30;94835.66;6187518;28;104342;-60
2022/08/24 11:57:17;;;;;;;6.27;5.63;;;;;;;26.18;49.25;94836.00;6182145;28;104161;-57
2022/08/24 12:00:23;;;;;;;7.23;6.63;;;;;;;26.18;49.16;94836.00;6181943;28;102953;-59
2022/08/24 12:03:42;;;;;;;6.97;6.33;;;;;;;26.19;49.05;94832.19;6187000;28;102752;-59
2022/08/24 12:06:56;;;;;;;6.43;5.93;;;;;;;26.14;48.69;94825.16;6186898;28;103051;-58
2022/08/24 12:10:19;;;;;;;7.10;6.10;;;;;;;26.15;49.15;94820.59;6177340;28;103693;-57
2022/08/24 12:13:33;;;;;;;7.17;6.47;;;;;;;26.15;49.40;94820.59;6186292;28;103240;-58
2022/08/24 12:16:45;;;;;;;6.63;6.13;;;;;;;26.14;48.99;94819.81;6186747;28;103255;-58
2022/08/24 12:19:52;;;;;;;6.60;6.10;;;;;;;26.13;49.60;94814.78;6182007;28;104149;-60
2022/08/24 12:23:02;;;;;;;6.80;6.33;;;;;;;26.13;49.51;94812.09;6181013;28;103175;-58
2022/08/24 12:26:14;;;;;;;7.40;6.73;;;;;;;26.12;49.50;94803.28;6186243;28;104031;-58
2022/08/24 12:29:23;;;;;;;7.20;6.60;;;;;;;26.11;49.08;94799.03;6187165;28;104366;-58
2022/08/24 12:32:33;;;;;;;7.10;6.50;;;;;;;26.09;49.44;94803.19;6175413;28;104376;-57
2022/08/24 12:35:41;;;;;;;6.73;6.13;;;;;;;26.10;49.27;94807.41;6187261;28;104476;-57
2022/08/24 12:38:52;;;;;;;7.87;7.20;;;;;;;26.10;49.19;94804.75;6186835;28;104199;-58
2022/08/24 12:42:04;;;;;;;8.63;7.93;;;;;;;26.08;49.13;94802.41;6186030;28;104227;-59
2022/08/24 12:45:10;;;;;;;7.77;7.07;;;;;;;26.07;49.55;94803.50;6176121;28;103359;-57
2022/08/24 12:48:21;;;;;;;8.53;7.83;;;;;;;26.06;49.59;94798.50;6186151;28;103246;-57
2022/08/24 12:51:32;;;;;;;10.50;9.37;;;;;;;26.12;50.17;94803.28;6186009;28;102991;-57
2022/08/24 12:54:57;;;;;;;10.37;9.47;;;;;;;26.08;50.01;94801.63;6176395;28;103189;-61
2022/08/24 12:58:07;;;;;;;10.47;9.60;;;;;;;26.01;49.82;94804.84;6186247;28;104189;-59
2022/08/24 13:01:34;;;;;;;11.80;10.83;;;;;;;25.99;49.89;94815.88;6185740;28;103367;-59
2022/08/24 13:04:41;;;;;;;13.50;12.30;;;;;;;25.97;49.88;94815.44;6185672;28;104394;-59
2022/08/24 13:07:47;;;;;;;13.20;12.20;;;;;;;25.98;49.82;94821.56;6174664;28;103376;-59
2022/08/24 13:11:04;;;;;;;14.80;13.60;;;;;;;25.96;50.49;94826.50;6184945;28;102991;-59
2022/08/24 13:14:18;;;;;;;15.50;14.30;;;;;;;25.97;50.04;94833.41;6185381;28;103178;-59
2022/08/24 13:17:21;;;;;;;16.07;14.60;;;;;;;25.95;50.03;94846.38;6174144;28;103197;-59
2022/08/24 13:20:29;;;;;;;15.60;14.40;;;;;;;25.95;50.03;94849.06;6185334;28;103990;-59
2022/08/24 13:23:32;;;;;;;16.33;15.03;;;;;;;25.94;49.92;94848.28;6185452;28;104059;-59
2022/08/24 13:26:36;;;;;;;16.70;15.50;;;;;;;25.94;50.30;94842.94;6187146;28;103371;-60
2022/08/24 13:29:42;;;;;;;17.00;15.37;;;;;;;25.93;50.02;94857.44;6179269;28;103289;-59
2022/08/24 13:32:50;;;;;;;16.53;15.00;;;;;;;25.91;50.19;94854.31;6188783;28;103263;-59
2022/08/24 13:36:00;;;;;;;15.50;14.23;;;;;;;25.92;50.43;94845.16;6190460;28;104616;-59
2022/08/24 13:39:12;;;;;;;15.90;14.50;;;;;;;25.91;50.39;94840.13;6187846;28;104206;-57
2022/08/24 13:42:38;;;;;;;16.90;15.47;;;;;;;25.93;50.16;94841.34;6183766;28;104079;-59
2022/08/24 13:45:48;;;;;;;14.60;13.30;;;;;;;25.95;50.54;94838.34;6189533;28;104027;-59
2022/08/24 13:48:58;;;;;;;15.70;14.20;;;;;;;25.93;50.63;94835.22;6189194;28;103978;-59
2022/08/24 13:52:13;;;;;;;13.90;12.60;;;;;;;25.92;50.50;94833.66;6178668;28;102941;-59
2022/08/24 13:55:31;;;;;;;14.23;13.03;;;;;;;25.97;50.30;94828.84;6189103;28;104151;-58
2022/08/24 13:58:43;;;;;;;13.43;12.30;;;;;;;25.98;50.18;94832.31;6188888;28;103163;-57
2022/08/24 14:02:04;;;;;;;13.27;12.07;;;;;;;26.01;50.28;94823.63;6186002;28;103983;-57
2022/08/24 14:05:17;;;;;;;13.10;11.90;;;;;;;25.97;50.40;94810.06;6183985;28;104319;-58
2022/08/24 14:08:35;;;;;;;12.87;11.67;;;;;;;26.00;50.25;94808.66;6189452;28;104029;-57
2022/08/24 14:11:58;;;;;;;12.63;11.50;;;;;;;26.01;50.33;94815.56;6188062;28;103019;-63
2022/08/24 14:15:18;;;;;;;12.43;11.40;;;;;;;25.99;50.29;94818.56;6178364;28;104181;-58
2022/08/24 14:18:27;;;;;;;12.17;11.20;;;;;;;25.99;50.80;94823.13;6189239;28;103525;-58
2022/08/24 14:21:41;;;;;;;11.93;11.00;;;;;;;25.97;50.29;94820.78;6188365;28;103095;-57
2022/08/24 14:24:48;;;;;;;12.73;11.57;;;;;;;25.97;50.12;94834.19;6182523;28;103033;-58
2022/08/24 14:28:29;;;;;;;12.30;11.30;;;;;;;25.99;50.40;94833.88;6183518;28;104131;-58
2022/08/24 14:31:35;;;;;;;12.10;11.07;;;;;;;26.01;50.53;94834.34;6178117;28;104118;-57
2022/08/24 14:34:45;;;;;;;11.97;10.23;;;;;;;25.98;50.33;94833.09;6186843;28;103959;-56
2022/08/24 14:38:04;;;;;;;12.80;11.23;;;;;;;25.99;50.39;94825.81;6166706;28;103159;-57
2022/08/24 14:41:34;;;;;;;11.73;10.67;;;;;;;25.98;50.90;94837.66;6186494;28;103888;-58
2022/08/24 14:45:03;;;;;;;11.50;10.60;;;;;;;25.97;50.33;94844.16;6158312;28;103243;-58
2022/08/24 14:48:19;;;;;;;11.27;10.27;;;;;;;25.97;50.39;94844.16;6159253;28;104123;-54
2022/08/24 14:51:45;;;;;;;11.07;10.10;;;;;;;25.97;50.25;94842.25;6186567;28;103028;-58
2022/08/24 14:55:03;;;;;;;10.30;9.30;;;;;;;25.95;50.01;94844.47;6169777;28;103533;-58
2022/08/24 14:58:18;;;;;;;10.47;9.63;;;;;;;25.93;50.45;94838.69;6188584;28;103271;-58
2022/08/24 15:01:42;;;;;;;11.10;10.20;;;;;;;25.95;50.40;94832.97;6178674;28;104655;-60
2022/08/24 15:04:51;;;;;;;10.20;9.30;;;;;;;25.93;50.27;94835.22;6163614;28;104004;-56
2022/08/24 15:07:57;;;;;;;9.43;8.70;;;;;;;25.90;49.93;94825.94;6163900;28;103231;-56
2022/08/24 15:11:08;;;;;;;8.43;7.33;;;;;;;25.86;50.70;94834.97;6153579;28;103694;-56
2022/08/24 15:14:21;;;;;;;9.27;7.90;;;;;;;25.86;50.68;94841.13;6163988;28;107344;-56
2022/08/24 15:17:39;;;;;;;10.40;8.90;;;;;;;25.88;50.84;94848.84;6165915;28;104434;-56
2022/08/24 15:20:59;;;;;;;9.87;8.87;;;;;;;25.88;50.99;94851.53;6163369;28;103328;-56
2022/08/24 15:24:14;;;;;;;12.40;10.87;;;;;;;25.86;51.01;94861.78;6153839;28;104543;-56
2022/08/24 15:27:27;;;;;;;11.57;9.57;;;;;;;25.87;50.63;94866.81;6162917;28;103904;-58
2022/08/24 15:30:33;;;;;;;11.80;10.73;;;;;;;25.89;50.84;94877.22;6175191;28;103029;-57
2022/08/24 15:33:52;;;;;;;12.83;10.50;;;;;;;25.88;51.27;94862.25;6176339;28;103208;-58
2022/08/24 15:37:01;;;;;;;11.83;10.70;;;;;;;25.91;51.55;94851.63;6186690;28;104303;-57
2022/08/24 15:40:17;;;;;;;10.77;9.77;;;;;;;25.89;50.88;94861.13;6178733;28;103276;-57
2022/08/24 15:43:21;;;;;;;11.70;10.60;;;;;;;25.87;51.38;94860.66;6186166;28;103343;-56
2022/08/24 15:46:27;;;;;;;13.70;11.30;;;;;;;25.86;51.66;94859.09;6173507;28;104268;-56
2022/08/24 15:49:38;;;;;;;15.63;10.43;;;;;;;25.85;51.90;94862.91;6180058;28;104087;-56
2022/08/24 15:52:48;;;;;;;12.27;10.53;;;;;;;25.82;51.84;94861.69;6184970;28;103638;-56
2022/08/24 15:55:51;;;;;;;15.83;11.30;;;;;;;25.85;51.43;94857.53;6179419;28;104107;-56
2022/08/24 15:59:07;;;;;;;13.70;11.70;;;;;;;25.86;52.32;94873.28;6180275;28;103034;-56
2022/08/24 16:02:27;;;;;;;11.30;10.10;;;;;;;25.88;51.66;94871.09;6184157;28;103989;-56
2022/08/24 16:05:37;;;;;;;12.00;10.80;;;;;;;25.92;52.54;94874.66;6183053;28;103135;-57
2022/08/24 16:08:56;;;;;;;16.20;12.37;;;;;;;25.96;52.44;94877.44;6172086;28;102953;-56
2022/08/24 16:12:03;;;;;;;15.90;12.00;;;;;;;25.92;52.25;94877.34;6184674;28;103256;-56
2022/08/24 16:15:16;;;;;;;16.50;13.70;;;;;;;25.94;52.30;94871.63;6183827;28;103446;-63
2022/08/24 16:18:20;;;;;;;18.33;16.43;;;;;;;25.86;52.04;94881.34;6178479;28;104344;-56
2022/08/24 16:21:29;;;;;;;17.40;12.80;;;;;;;25.84;52.19;94885.47;6177424;28;104220;-57
2022/08/24 16:24:39;;;;;;;14.17;12.80;;;;;;;25.88;52.87;94897.13;6181930;28;103113;-58
2022/08/24 16:28:08;;;;;;;17.80;12.80;;;;;;;25.88;52.19;94897.13;6178683;28;103577;-57
2022/08/24 16:31:12;;;;;;;18.13;13.17;;;;;;;25.80;51.78;94889.94;6171738;28;103881;-62
2022/08/24 16:34:23;;;;;;;16.80;12.80;;;;;;;25.84;52.65;94882.78;6182665;28;103085;-57
2022/08/24 16:37:26;;;;;;;12.73;11.20;;;;;;;25.85;53.12;94882.44;6174439;28;103157;-60
2022/08/24 16:40:33;;;;;;;16.50;11.40;;;;;;;25.91;52.61;94872.31;6174495;28;103411;-59
2022/08/24 16:43:39;;;;;;;15.67;10.53;;;;;;;26.06;52.78;94862.84;6172486;28;103868;-58
2022/08/24 16:46:42;;;;;;;15.30;10.33;;;;;;;26.08;52.99;94864.06;6180577;28;104198;-59
2022/08/24 16:49:50;;;;;;;15.70;9.07;;;;;;;25.99;51.90;94872.19;6178877;28;103009;-58
2022/08/24 16:52:53;;;;;;;22.47;10.27;;;;;;;25.96;51.95;94878.22;6170065;28;103761;-57
2022/08/24 16:55:58;;;;;;;16.70;10.60;;;;;;;25.86;52.45;94893.97;6178685;28;103180;-58